Norfolk, VA (23517)

6:33 AM EST on January 18, 2018 (GMT -0500)
Ghent | | Change Station
Active Advisory: Special Statement

Elev 20 ft 36.87 °N, 76.30 °W | Updated 2 seconds ago

Overcast
Overcast
22.8 °F
Feels Like 23 °F
N
2.9
Wind Variable Wind from WNW
Gusts 9.0 mph

Today
High -- | Low -- °F
--% Chance of Precip.
Yesterday
High -- | Low -- °F
Precip. -- in
Pressure 30.17 in
Visibility 10.0 miles
Clouds Overcast 10000 ft
Windchill 23 °F
Dew Point 13 °F
Humidity 66%
Rainfall 0.00 in
Snow Depth Not available.
7:16 AM 5:15 PM
New Moon, 2% visible
METAR KNGU 181059Z 32015KT 10SM OVC100 M05/M12 A3017 RMK AO2 SLP215 LSR27 I1003 T10501117 $
Pressure 30.17 in
Visibility 10.0 miles
Clouds Overcast 10000 ft
Windchill 23 °F
Dew Point 13 °F
Humidity 66%
Rainfall 0.00 in
Snow Depth Not available.
7:16 AM 5:15 PM
New Moon, 2% visible
METAR KNGU 181059Z 32015KT 10SM OVC100 M05/M12 A3017 RMK AO2 SLP215 LSR27 I1003 T10501117 $

Get Your Daily Forecast Email!

Thanks for signing up!

Be on the lookout for a verification email in your inbox.

You'll start receiving severe weather alerts in your inbox..

×

10-Day Weather Forecast

Almanac

Astronomy

Jan. 18, 2018 Rise Set
Actual Time
Civil Twilight
Nautical Twilight
Astronomical Twilight
Moon
Length of Visible Light
Length of Day
Tomorrow will be .
, % of the Moon is Illuminated

Today's Extremes

State Highs State Lows

Community

WunderPhotos

Category 6

Welcome to Category 6. This is the collective home for Weather Underground's featured writeups by Dr. Jeff Masters (right), Bob Henson (left), Chris Burt, and other regular contributors.

Nearby

Air Quality

  Air Quality AQ Index Pollutant
Not available.

Snow Depth

Station Depth Elevation

Earthquake Activity

City Distance Mag. Time & Date
Minimum magnitude displayed is 2.5.

Coastal Water Temperatures

Place Temperature

Stations

Nearby Weather Stations

Station Location Temp. Windchill Dew Point Humidity Wind Precip. Elev Updated Type
                   

Watches & Warnings

Special Statement
Issued: 5:13 AM EST Jan. 18, 2018 – National Weather Service

... Snow and ice covered roads expected through the morning
commute Thursday...

Temperatures this morning will remain well below freezing
throughout the region, with many roads remaining snow and ice
covered. Travel will remain hazardous through midday. Allow
plenty of time to get to your destination this morning.